FYGA4: White River At Fayetteville, AR

                                SHEF ID:       FYGA4     White River near Fayetteville, A
STATION TYPE: Stream Gauge

PRECIP STAGE RIV-FLOW WTR-TEMP DIS-OXY PH CONDUCT BAT-LOAD
in ft cfs F mg/l su umho/cm volt
Ccp-Rev Ccp-Rev Ccp-Rev Ccp-Rev Ccp-Rev Ccp-Rev Ccp-Rev Ccp-Rev
(America/Chicago)
11/30 00:00 0.00 2.46 129 48.38 10.10 7.56 149 12.25
11/30 01:00 0.00 2.48 134 48.13 10.16 7.55 145 12.25
11/30 02:00 0.00 2.52 144 47.80 10.21 7.56 142 12.25
11/30 03:00 0.00 2.53 146 47.57 10.27 7.56 140 12.25
11/30 04:00 0.00 2.50 139 47.34 10.28 7.56 140 12.17
11/30 05:00 0.00 2.53 146 47.16 10.32 7.56 140 12.17
11/30 06:00 0.00 2.54 149 47.05 10.35 7.56 140 12.17
11/30 07:00 0.00 2.55 151 46.92 10.34 7.56 140 12.17
11/30 08:00 0.00 2.54 149 46.76 10.42 7.56 139 12.17
11/30 09:00 0.00 2.50 139 46.67 10.58 7.58 140 13.13
11/30 10:00 0.00 2.52 144 47.08 10.81 7.63 140 13.84
11/30 11:00 0.00 2.55 151 47.70 10.99 7.66 139 14.72
11/30 12:00 0.00 2.58 159 48.34 11.07 7.69 137 14.32
11/30 13:00 0.00 2.59 162 48.70 11.09 7.70 135 14.24
11/30 14:00 0.00 2.60 164 48.83 11.08 7.71 134 14.16
11/30 15:00 0.00 2.61 167 48.63 11.03 7.71 134 14.24
11/30 16:00 0.00 2.62 170 48.20 10.89 7.67 133 13.44
11/30 17:00 0.00 2.61 167 47.73 10.77 7.65 133 13.29
11/30 18:00 0.00 2.63 172 47.44 10.65 7.62 133 12.81
11/30 19:00 0.00 2.64 175 47.25 10.63 7.59 132 12.73
11/30 20:00 0.00 2.64 175 47.10 10.62 7.59 132 12.73
11/30 21:00 0.00 2.65 178 46.92 10.62 7.59 131 12.65
11/30 22:00 0.00 2.64 175 46.76 10.63 7.57 131 12.65
11/30 23:00 0.00 2.64 175 46.62 10.63 7.57 131 12.65
Data processed at Mon 01Dec2025 05:10 GMT

NOTICE: If you are parsing this page

Please convert to using our Data API. Starting January 1st, 2026 we will be migrating to: https://water.usace.army.mil with modern pages rendered in JavaScript. You will no longer be able to scrape this page! CWMSDataAPI (CDA)

Timeseries IDs (TSIDs)

TSIDs used from left to right in the data table
FAYE.Precip-Inc.Total.1Hour.1Hour.Ccp-Rev
FAYE.Stage.Inst.1Hour.0.Ccp-Rev
FAYE.Flow.Inst.1Hour.0.Ccp-Rev
FAYE.Temp-Water.Inst.1Hour.0.Ccp-Rev
FAYE.Conc-DO.Inst.1Hour.0.Ccp-Rev
FAYE.pH.Inst.1Hour.0.Ccp-Rev
FAYE.Cond-Water.Inst.1Hour.0.Ccp-Rev
FAYE.Volt-Battery Load.Inst.1Hour.0.Ccp-Rev

                            

All information presented herein is the property of the government of the United States of America and may be revised or deleted at any time without prior notice. Dissemination of this information without the expressed written consent of the Public Affairs Office, Tulsa District U.S. Army Corps of Engineers is strictly prohibited. These data are gathered electronically and, as presented, have NOT undergone any form of quality control. These data are NOT guaranteed to be valid or correct.